Weather forecast for Mieroszów

Poland, 561 m
N50.672, E16.210


Sounding

Red line — air temperature ˚C.
Blue line — thermal bubble temperature ˚C.
Green line — dew point temperature ˚C.
Wind speed is in meters per second.

Table forecast

GFS 0.25˚ model

temp. wind gust humid. clouds prec. press. hpbl
Sat21 00:00 15 262.0 w 1 1 80 75 0.0 1014 23
03:00 14 256.0 wsw 1 1 80 72 0.0 1014 23
06:00 14 219.0 sw 1 2 77 15 0.0 1013 23
09:00 20 211.0 ssw 1 2 69 33 0.0 1013 154
12:00 25 5.0 n 1 2 49 17 0.0 1012 1553
15:00 25 52.0 ne 1 1 47 46 0.0 1011 1792
18:00 25 68.0 ene 1 1 49 77 0.0 1011 1613
21:00 21 83.0 e 1 1 67 70 0.0 1011 23
 
Sun22 00:00 16 80.0 e 0 1 75 100 0.0 1011 23
03:00 15 350.0 n 1 2 83 100 0.0 1011 23
06:00 14 333.0 nnw 1 2 88 97 0.0 1011 23
09:00 18 354.0 n 2 2 75 98 0.0 1012 198
12:00 22 25.0 nne 3 4 61 100 0.0 1012 689
15:00 24 16.0 nne 4 4 55 100 0.0 1011 1352
18:00 23 5.0 n 4 5 52 59 0.0 1011 1484
21:00 19 345.0 nnw 3 7 68 45 0.0 1011 189
 
Mon23 00:00 16 318.0 nw 2 2 69 49 0.0 1012 31
03:00 14 313.0 nw 2 2 74 71 0.0 1012 31
06:00 13 313.0 nw 2 2 79 49 0.0 1013 26
09:00 18 340.0 nnw 2 5 74 36 0.0 1013 297
12:00 22 10.0 n 4 5 61 2 0.1 1013 1158
15:00 24 14.0 nne 4 6 54 8 0.3 1013 1570
18:00 24 14.0 nne 4 6 52 4 0.1 1013 1764
21:00 20 10.0 n 2 4 77 3 0.3 1013 101
 
Tue24 00:00 17 296.0 wnw 1 2 83 2 0.1 1015 23
03:00 15 307.0 nw 2 2 91 36 0.1 1015 24
06:00 15 322.0 nw 1 2 93 5 0.3 1015 23
09:00 19 3.0 n 2 3 86 9 0.9 1016 259
12:00 21 12.0 nne 2 3 75 37 0.8 1015 792
15:00 22 4.0 n 4 5 69 45 1.8 1014 1146
18:00 23 6.0 n 4 6 60 47 0.3 1013 1335
21:00 20 25.0 nne 3 7 75 25 0.3 1014 206
 
Wed25 00:00 16 344.0 nnw 1 2 84 0 0.0 1015 23
03:00 15 310.0 nw 1 2 93 0 0.0 1015 23
06:00 15 313.0 nw 2 2 97 0 0.0 1015 30
09:00 19 343.0 nnw 2 4 86 0 0.0 1016 377
12:00 22 7.0 n 4 5 71 6 0.4 1015 929
15:00 24 14.0 nne 3 5 62 7 1.7 1014 1297
18:00 25 28.0 nne 4 5 53 4 0.3 1014 1679
21:00 20 40.0 ne 3 6 73 4 0.3 1014 166
 

0.012 s